Startpagina
METAR-TAF:

METAR-TAF

Vliegvelden :

Aeropuerto Internacional de Maiquetía Simón Bolívar

Caracas, Venezuela

breedte: 10-36N, lengte: 066-59W, hoogte: 43 m

Actueel weer

Dit bericht is 25 minuten geleden gemaakt, om 23:00 UTC
Wind 2 kt uit het oosten
Temperatuur 27°C
Vochtigheid 79%
Druk 1007 hPa
Zicht 10 km of meer
Weinig wolken op 2000 ft

METAR: SVMI 262300Z 09002KT 9999 FEW020 27/23 Q1007

Tijdstip: 19:25 (23:25 UTC)

Verwachting

Dit bericht is 7 uur en het 25 minuten geleden gemaakt, om 16:00 UTC
Verwachting geldig van 26 om 18 UTC tot 27 om 18 UTC
Wind 10 kt uit variabele richting
Zicht 10 km of meer
Weinig wolken op 1600 ft
Verspreide wolken op 9000 ft
Tijdelijke
van 26 om 21 UTC tot 27 om 01 UTC
Zicht: 8000 m
Verspreide wolken op 1300 ft
Gebroken wolken op 9000 ft
motregen

TAF: SVMI 261600Z 2618/2718 VRB10KT 9999 FEW016 SCT090 TX32/17Z TN25/09Z TEMPO 2621/2701 8000 DZ SCT013 BKN090

Waarnemingen en weersverwachtingen van meer dan 4000 vliegvelden (METAR en TAF).

De beschikbare stations zijn de gele en rode punten op de kaart.

Ga met uw muis naar het station om de naam te zien.

Klik dan om waarnemingen en weersverwachtingen te zien.

kaart wijzigen: klik op de groene knoppen met een zwart kruis om in te zoomen, op de groene knop met een streepje om uit te zoomen of op de groene pijlen voor aangrenzende kaarten.


METAR-TAF: